createdAt,value
2022-07-29T00:01:44.704Z,12.87
2022-07-29T00:04:13.704Z,12.84
2022-07-29T00:06:42.610Z,12.80
2022-07-29T00:09:10.891Z,12.77
2022-07-29T00:11:40.908Z,12.74
2022-07-29T00:14:10.793Z,12.69
2022-07-29T00:16:39.313Z,12.66
2022-07-29T00:19:08.008Z,12.64
2022-07-29T00:21:37.056Z,12.60
2022-07-29T00:24:06.142Z,12.55
2022-07-29T00:26:34.743Z,12.52
2022-07-29T00:29:32.879Z,12.48
2022-07-29T00:31:55.709Z,12.42
2022-07-29T00:34:41.337Z,12.39
2022-07-29T00:37:10.638Z,12.35
2022-07-29T00:39:38.655Z,12.32
2022-07-29T00:42:07.549Z,12.29
2022-07-29T00:44:40.642Z,12.26
2022-07-29T00:47:09.544Z,12.22
2022-07-29T00:49:38.353Z,12.18
2022-07-29T00:52:11.104Z,12.13
2022-07-29T00:54:44.434Z,12.08
2022-07-29T00:57:14.013Z,12.07
2022-07-29T00:59:43.871Z,12.04
2022-07-29T01:02:12.266Z,12.01
2022-07-29T01:04:41.160Z,12.00
2022-07-29T01:07:09.695Z,11.96
2022-07-29T01:09:45.816Z,11.93
2022-07-29T01:12:17.450Z,11.87
2022-07-29T01:14:47.119Z,11.83
2022-07-29T01:17:20.464Z,11.78
2022-07-29T01:19:55.742Z,11.74
2022-07-29T01:22:34.016Z,11.70
2022-07-29T01:25:16.831Z,11.67
2022-07-29T01:28:03.583Z,11.65
2022-07-29T01:30:37.913Z,11.62
2022-07-29T01:33:12.431Z,11.57
2022-07-29T01:35:43.215Z,11.56
2022-07-29T01:38:16.008Z,11.54
2022-07-29T01:40:48.947Z,11.51
2022-07-29T01:43:22.484Z,11.46
2022-07-29T01:45:58.889Z,11.43
2022-07-29T01:48:43.213Z,11.41
2022-07-29T01:51:16.862Z,11.38
2022-07-29T01:53:48.470Z,11.32
2022-07-29T01:56:19.217Z,11.26
2022-07-29T01:58:49.513Z,11.24
2022-07-29T02:01:20.589Z,11.23
2022-07-29T02:03:50.176Z,11.19
2022-07-29T02:06:21.590Z,11.15
2022-07-29T02:08:51.337Z,11.13
2022-07-29T02:11:20.080Z,11.08
2022-07-29T02:13:53.320Z,11.11
2022-07-29T02:16:23.999Z,11.10
2022-07-29T02:18:56.036Z,11.07
2022-07-29T02:21:29.323Z,11.04
2022-07-29T02:24:01.703Z,11.02
2022-07-29T02:26:31.465Z,10.97
2022-07-29T02:29:01.681Z,10.92
2022-07-29T02:31:35.863Z,10.89
2022-07-29T02:34:05.533Z,10.86
2022-07-29T02:36:35.009Z,10.82
2022-07-29T02:39:04.578Z,10.81
2022-07-29T02:41:42.438Z,10.79
2022-07-29T02:44:13.525Z,10.78
2022-07-29T02:46:47.721Z,10.76
2022-07-29T02:49:20.234Z,10.73
2022-07-29T02:51:51.607Z,10.69
2022-07-29T02:54:26.082Z,10.64
2022-07-29T02:56:56.670Z,10.62
2022-07-29T02:59:29.297Z,10.70
2022-07-29T03:02:01.797Z,10.87
2022-07-29T03:04:31.301Z,11.03
2022-07-29T03:07:01.743Z,11.20
2022-07-29T03:09:30.644Z,11.39
2022-07-29T03:11:59.850Z,11.58
2022-07-29T03:14:28.792Z,11.77
2022-07-29T03:16:58.649Z,11.95
2022-07-29T03:19:28.501Z,12.12
2022-07-29T03:22:04.805Z,12.36
2022-07-29T03:24:34.862Z,12.55
2022-07-29T03:27:04.057Z,12.70
2022-07-29T03:29:32.918Z,12.88
2022-07-29T03:32:08.257Z,13.06
2022-07-29T03:34:38.028Z,13.24
2022-07-29T03:37:08.229Z,13.38
2022-07-29T03:39:41.646Z,13.47
2022-07-29T03:42:12.917Z,13.60
2022-07-29T03:44:44.430Z,13.72
2022-07-29T03:47:16.871Z,13.80
2022-07-29T03:49:48.786Z,13.90
2022-07-29T03:52:18.232Z,13.97
2022-07-29T03:54:46.786Z,14.00
2022-07-29T03:57:17.366Z,14.02
2022-07-29T03:59:46.248Z,13.93
2022-07-29T04:02:21.518Z,13.84
2022-07-29T04:04:50.628Z,13.82
2022-07-29T04:07:18.787Z,13.85
2022-07-29T04:09:49.267Z,13.92
2022-07-29T04:12:17.411Z,13.93
2022-07-29T04:14:47.690Z,13.94
2022-07-29T04:17:17.031Z,13.99
2022-07-29T04:19:45.361Z,14.02
2022-07-29T04:22:13.326Z,14.04
2022-07-29T04:24:44.304Z,14.05
2022-07-29T04:27:12.613Z,14.07
2022-07-29T04:29:57.341Z,14.13
2022-07-29T04:32:27.783Z,14.18
2022-07-29T04:34:55.878Z,14.29
2022-07-29T04:37:23.901Z,14.39
2022-07-29T04:39:52.167Z,14.49
2022-07-29T04:42:27.584Z,14.60
2022-07-29T04:44:56.692Z,14.70
2022-07-29T04:47:26.108Z,14.79
2022-07-29T04:49:54.109Z,14.83
2022-07-29T04:52:22.218Z,14.91
2022-07-29T04:54:50.161Z,14.97
2022-07-29T04:57:18.131Z,15.01
2022-07-29T04:59:46.172Z,15.08
2022-07-29T05:02:14.611Z,15.10
2022-07-29T05:04:44.090Z,15.20
2022-07-29T05:07:12.066Z,15.32
2022-07-29T05:09:40.143Z,15.47
2022-07-29T05:12:09.316Z,15.58
2022-07-29T05:14:39.975Z,15.66
2022-07-29T05:17:08.246Z,15.77
2022-07-29T05:19:39.395Z,15.89
2022-07-29T05:22:09.428Z,15.96
2022-07-29T05:24:37.427Z,16.12
2022-07-29T05:27:06.294Z,16.23
2022-07-29T05:29:44.588Z,16.30
2022-07-29T05:32:14.127Z,16.26
2022-07-29T05:34:50.250Z,16.27
2022-07-29T05:37:21.327Z,16.34
2022-07-29T05:39:56.354Z,16.55
2022-07-29T05:42:25.746Z,16.68
2022-07-29T05:44:54.196Z,16.74
2022-07-29T05:47:22.939Z,16.85
2022-07-29T05:49:52.724Z,16.91
2022-07-29T05:52:22.492Z,17.03
2022-07-29T05:54:50.524Z,17.27
2022-07-29T05:57:19.604Z,17.39
2022-07-29T05:59:48.231Z,17.57
2022-07-29T06:02:17.053Z,17.72
2022-07-29T06:04:45.669Z,17.83
2022-07-29T06:07:14.330Z,17.87
2022-07-29T06:09:43.817Z,17.91
2022-07-29T06:12:12.042Z,18.04
2022-07-29T06:14:41.602Z,18.11
2022-07-29T06:17:09.602Z,18.14
2022-07-29T06:19:37.818Z,18.14
2022-07-29T06:22:06.190Z,18.17
2022-07-29T06:24:34.115Z,18.27
2022-07-29T06:27:03.779Z,18.45
2022-07-29T06:29:32.956Z,18.66
2022-07-29T06:32:01.177Z,18.88
2022-07-29T06:34:29.530Z,19.09
2022-07-29T06:37:01.520Z,19.34
2022-07-29T06:39:29.520Z,19.60
2022-07-29T06:41:57.459Z,19.76
2022-07-29T06:44:27.714Z,19.93
2022-07-29T06:46:55.885Z,20.10
2022-07-29T06:49:25.487Z,20.19
2022-07-29T06:51:53.759Z,20.28
2022-07-29T06:54:22.860Z,20.33
2022-07-29T06:56:50.921Z,20.52
2022-07-29T06:59:19.841Z,20.67
2022-07-29T07:01:51.176Z,20.81
2022-07-29T07:04:20.182Z,20.88
2022-07-29T07:06:48.699Z,20.95
2022-07-29T07:09:17.441Z,20.92
2022-07-29T07:11:45.372Z,20.89
2022-07-29T07:14:18.033Z,20.85
2022-07-29T07:16:46.532Z,20.87
2022-07-29T07:19:16.368Z,20.93
2022-07-29T07:21:44.418Z,20.99
2022-07-29T07:24:12.663Z,21.08
2022-07-29T07:26:41.767Z,21.16
2022-07-29T07:29:09.695Z,21.26
2022-07-29T07:31:40.131Z,21.44
2022-07-29T07:34:08.359Z,21.65
2022-07-29T07:36:37.667Z,21.77
2022-07-29T07:39:06.504Z,21.81
2022-07-29T07:41:34.524Z,21.81
2022-07-29T07:44:02.705Z,21.79
2022-07-29T07:46:31.365Z,21.88
2022-07-29T07:48:59.445Z,21.99
2022-07-29T07:51:28.051Z,22.08
2022-07-29T07:53:57.750Z,22.12
2022-07-29T07:56:30.727Z,22.24
2022-07-29T07:59:03.170Z,22.37
2022-07-29T08:01:31.284Z,22.48
2022-07-29T08:04:24.938Z,22.64
2022-07-29T08:06:55.851Z,22.71
2022-07-29T08:09:30.643Z,22.78
2022-07-29T08:12:03.472Z,22.83
2022-07-29T08:14:32.032Z,22.96
2022-07-29T08:17:00.170Z,23.09
2022-07-29T08:19:29.695Z,23.10
2022-07-29T08:21:57.879Z,23.06
2022-07-29T08:24:47.331Z,23.15
2022-07-29T08:27:40.860Z,23.27
2022-07-29T08:30:04.356Z,23.28
2022-07-29T08:32:52.658Z,23.40
2022-07-29T08:35:20.983Z,23.37
2022-07-29T08:37:49.161Z,23.46
2022-07-29T08:40:18.766Z,23.59
2022-07-29T08:42:47.546Z,23.69
2022-07-29T08:45:15.780Z,23.78
2022-07-29T08:47:45.021Z,23.91
2022-07-29T08:50:13.510Z,24.10
2022-07-29T08:52:44.416Z,24.10
2022-07-29T08:55:12.932Z,24.09
2022-07-29T08:57:50.957Z,24.09
2022-07-29T09:00:24.504Z,23.98
2022-07-29T09:02:59.761Z,23.97
2022-07-29T09:05:28.617Z,23.87
2022-07-29T09:07:59.847Z,23.74
2022-07-29T09:10:31.236Z,23.68
2022-07-29T09:13:00.529Z,23.67
2022-07-29T09:15:31.060Z,23.63
2022-07-29T09:17:59.596Z,23.59
2022-07-29T09:20:51.309Z,23.61
2022-07-29T09:23:23.109Z,23.77
2022-07-29T09:25:53.307Z,23.87
2022-07-29T09:28:24.842Z,23.98
2022-07-29T09:30:54.263Z,24.06
2022-07-29T09:33:23.170Z,24.13
2022-07-29T09:36:02.831Z,24.19
2022-07-29T09:38:32.411Z,24.33
2022-07-29T09:41:05.741Z,24.40
2022-07-29T09:43:36.442Z,24.53
2022-07-29T09:46:14.295Z,24.65
2022-07-29T09:48:42.613Z,24.81
2022-07-29T09:51:23.021Z,24.97
2022-07-29T09:53:55.886Z,25.18
2022-07-29T09:56:40.739Z,25.40
2022-07-29T09:59:15.937Z,25.54
2022-07-29T10:01:47.241Z,25.73
2022-07-29T10:04:16.236Z,25.86
2022-07-29T10:07:04.298Z,26.02
2022-07-29T10:09:33.152Z,26.00
2022-07-29T10:12:07.778Z,25.93
2022-07-29T10:14:51.829Z,25.90
2022-07-29T10:17:20.562Z,25.85
2022-07-29T10:19:52.215Z,25.74
2022-07-29T10:22:50.443Z,25.73
2022-07-29T10:25:09.516Z,25.44
2022-07-29T10:27:40.199Z,25.23
2022-07-29T10:30:11.188Z,25.21
2022-07-29T10:32:59.387Z,25.16
2022-07-29T10:35:40.793Z,25.30
2022-07-29T10:38:53.442Z,25.40
2022-07-29T10:41:59.932Z,25.40
2022-07-29T10:44:46.778Z,25.39
2022-07-29T10:47:35.729Z,25.46
2022-07-29T10:50:06.089Z,25.42
2022-07-29T10:52:57.588Z,25.17
2022-07-29T10:55:51.815Z,24.60
2022-07-29T10:58:23.682Z,24.29
2022-07-29T11:00:53.223Z,23.99
2022-07-29T11:03:50.613Z,23.76
2022-07-29T11:06:26.871Z,23.95
2022-07-29T11:09:25.842Z,24.14
2022-07-29T11:12:48.667Z,24.41
2022-07-29T11:15:20.096Z,24.55
2022-07-29T11:18:08.094Z,24.75
2022-07-29T11:20:50.263Z,24.84
2022-07-29T11:23:25.737Z,24.75
2022-07-29T11:26:25.780Z,24.73
2022-07-29T11:29:03.165Z,24.78
2022-07-29T11:31:44.639Z,24.86
2022-07-29T11:37:28.165Z,24.82
2022-07-29T11:43:07.389Z,24.86
2022-07-29T11:45:48.684Z,24.96
2022-07-29T11:48:29.467Z,25.11
2022-07-29T11:51:00.993Z,25.25
2022-07-29T11:53:32.334Z,25.19
2022-07-29T11:56:03.574Z,25.24
2022-07-29T11:58:32.903Z,25.23
2022-07-29T12:01:04.863Z,25.31
2022-07-29T12:03:38.600Z,25.42
2022-07-29T12:06:15.440Z,25.49
2022-07-29T12:07:01.564Z,24.79
2022-07-29T12:07:03.392Z,24.83
2022-07-29T12:08:47.636Z,25.53
2022-07-29T12:11:21.292Z,25.37
2022-07-29T12:13:51.720Z,25.35
2022-07-29T12:16:25.833Z,25.32
2022-07-29T12:19:02.919Z,25.29
2022-07-29T12:21:31.766Z,25.18
2022-07-29T12:24:09.342Z,25.17
2022-07-29T12:26:51.030Z,25.19
2022-07-29T12:29:34.656Z,25.25
2022-07-29T12:32:04.383Z,25.17
2022-07-29T12:34:33.263Z,25.19
2022-07-29T12:37:06.648Z,25.25
2022-07-29T12:39:37.029Z,25.32
2022-07-29T12:42:15.035Z,25.47
2022-07-29T12:44:56.612Z,25.63
2022-07-29T12:47:24.958Z,25.70
2022-07-29T12:50:09.185Z,25.78
2022-07-29T12:52:38.406Z,25.89
2022-07-29T12:55:08.919Z,25.97
2022-07-29T12:57:48.691Z,25.88
2022-07-29T13:00:17.836Z,25.82
2022-07-29T13:02:46.872Z,25.80
2022-07-29T13:05:14.963Z,25.80
2022-07-29T13:07:57.076Z,25.76
2022-07-29T13:10:27.056Z,25.81
2022-07-29T13:13:09.119Z,25.89
2022-07-29T13:15:37.868Z,26.03
2022-07-29T13:18:27.082Z,26.11
2022-07-29T13:20:55.099Z,25.89
2022-07-29T13:23:23.207Z,25.74
2022-07-29T13:25:52.533Z,25.64
2022-07-29T13:28:22.659Z,25.68
2022-07-29T13:30:50.806Z,25.65
2022-07-29T13:33:19.424Z,25.72
2022-07-29T13:35:48.595Z,25.84
2022-07-29T13:38:16.785Z,25.94
2022-07-29T13:40:45.099Z,26.01
2022-07-29T13:43:15.328Z,26.05
2022-07-29T13:45:43.574Z,25.98
2022-07-29T13:48:12.321Z,25.99
2022-07-29T13:50:40.441Z,25.95
2022-07-29T13:53:27.058Z,25.90
2022-07-29T13:55:55.984Z,25.78
2022-07-29T13:58:25.632Z,25.67
2022-07-29T14:00:53.754Z,25.74
2022-07-29T14:03:25.737Z,25.56
2022-07-29T14:05:53.848Z,25.45
2022-07-29T14:08:25.311Z,25.33
2022-07-29T14:10:53.436Z,25.32
2022-07-29T14:13:25.154Z,25.42
2022-07-29T14:15:55.863Z,25.49
2022-07-29T14:18:24.076Z,25.56
2022-07-29T14:20:52.231Z,25.69
2022-07-29T14:23:20.502Z,25.79
2022-07-29T14:25:49.441Z,25.88
2022-07-29T14:28:18.456Z,25.95
2022-07-29T14:30:46.652Z,26.05
2022-07-29T14:33:16.142Z,26.04
2022-07-29T14:35:44.719Z,25.79
2022-07-29T14:38:13.197Z,25.71
2022-07-29T14:40:41.278Z,25.62
2022-07-29T14:43:09.439Z,25.63
2022-07-29T14:45:37.604Z,25.66
2022-07-29T14:48:31.448Z,25.65
2022-07-29T14:51:04.376Z,25.58
2022-07-29T14:53:34.353Z,25.58
2022-07-29T14:56:15.310Z,25.58
2022-07-29T14:58:51.858Z,25.64
2022-07-29T15:01:21.306Z,25.62
2022-07-29T15:03:51.608Z,25.56
2022-07-29T15:06:19.655Z,25.54
2022-07-29T15:08:48.163Z,25.60
2022-07-29T15:11:16.444Z,25.66
2022-07-29T15:13:44.578Z,25.66
2022-07-29T15:16:13.002Z,25.72
2022-07-29T15:18:41.092Z,25.67
2022-07-29T15:21:10.949Z,25.66
2022-07-29T15:23:45.477Z,25.66
2022-07-29T15:26:22.575Z,25.76
2022-07-29T15:28:50.689Z,25.84
2022-07-29T15:31:19.937Z,26.00
2022-07-29T15:33:48.011Z,26.27
2022-07-29T15:36:42.168Z,26.57
2022-07-29T15:39:05.668Z,27.16
2022-07-29T15:41:33.940Z,28.29
2022-07-29T15:44:02.316Z,29.34
2022-07-29T15:46:47.974Z,30.19
2022-07-29T15:49:16.607Z,30.96
2022-07-29T15:51:46.238Z,31.71
2022-07-29T15:54:18.248Z,32.45
2022-07-29T15:56:46.363Z,32.91
2022-07-29T15:59:22.561Z,33.61
2022-07-29T16:01:51.064Z,34.08
2022-07-29T16:04:19.687Z,34.47
2022-07-29T16:06:49.767Z,34.87
2022-07-29T16:09:21.343Z,35.33
2022-07-29T16:11:51.099Z,35.75
2022-07-29T16:14:44.600Z,35.89
2022-07-29T16:17:14.698Z,35.38
2022-07-29T16:19:43.752Z,35.56
2022-07-29T16:22:14.005Z,35.74
2022-07-29T16:24:42.319Z,35.89
2022-07-29T16:27:10.469Z,35.89
2022-07-29T16:29:38.647Z,35.73
2022-07-29T16:32:07.571Z,35.80
2022-07-29T16:34:35.658Z,36.23
2022-07-29T16:37:04.358Z,36.08
2022-07-29T16:39:34.530Z,35.93
2022-07-29T16:42:05.249Z,35.75
2022-07-29T16:44:35.341Z,35.68
2022-07-29T16:47:04.191Z,35.61
2022-07-29T16:49:32.544Z,35.63
2022-07-29T16:52:00.642Z,35.49
2022-07-29T16:54:29.184Z,35.08
2022-07-29T16:57:01.397Z,34.80
2022-07-29T16:59:29.771Z,34.72
2022-07-29T17:01:58.066Z,34.45
2022-07-29T17:04:27.583Z,34.18
2022-07-29T17:06:56.189Z,34.13
2022-07-29T17:09:26.238Z,33.85
2022-07-29T17:11:56.637Z,33.62
2022-07-29T17:14:29.590Z,32.53
2022-07-29T17:17:01.030Z,32.40
2022-07-29T17:19:30.743Z,31.42
2022-07-29T17:22:07.003Z,30.34
2022-07-29T17:24:39.034Z,29.55
2022-07-29T17:27:27.966Z,28.81
2022-07-29T17:29:58.400Z,28.44
2022-07-29T17:32:28.008Z,28.41
2022-07-29T17:34:58.669Z,28.01
2022-07-29T17:37:29.021Z,27.65
2022-07-29T17:40:00.409Z,28.06
2022-07-29T17:42:28.617Z,27.85
2022-07-29T17:44:59.264Z,27.48
2022-07-29T17:47:27.292Z,27.31
2022-07-29T17:49:55.248Z,27.30
2022-07-29T17:52:23.286Z,27.27
2022-07-29T17:54:51.183Z,28.00
2022-07-29T17:57:19.171Z,28.63
2022-07-29T17:59:47.290Z,28.74
2022-07-29T18:02:28.414Z,28.60
2022-07-29T18:04:57.363Z,28.42
2022-07-29T18:07:25.436Z,28.40
2022-07-29T18:09:57.411Z,28.58
2022-07-29T18:12:28.269Z,28.97
2022-07-29T18:14:56.455Z,29.13
2022-07-29T18:17:48.358Z,29.24
2022-07-29T18:20:18.953Z,28.99
2022-07-29T18:22:47.037Z,28.92
2022-07-29T18:25:15.175Z,28.84
2022-07-29T18:27:43.882Z,28.78
2022-07-29T18:30:12.671Z,28.60
2022-07-29T18:32:54.315Z,28.37
2022-07-29T18:38:12.646Z,27.33
2022-07-29T18:40:43.183Z,26.91
2022-07-29T18:43:11.645Z,26.55
2022-07-29T18:45:40.026Z,26.35
2022-07-29T18:48:12.826Z,26.54
2022-07-29T18:50:41.260Z,26.73
2022-07-29T18:53:11.820Z,26.78
2022-07-29T18:55:39.935Z,26.46
2022-07-29T18:58:08.351Z,26.11
2022-07-29T19:00:36.587Z,25.80
2022-07-29T19:03:05.032Z,25.48
2022-07-29T19:05:34.948Z,25.22
2022-07-29T19:08:03.451Z,25.03
2022-07-29T19:10:31.720Z,24.81
2022-07-29T19:13:01.499Z,24.60
2022-07-29T19:15:29.723Z,24.42
2022-07-29T19:18:09.347Z,24.26
2022-07-29T19:20:42.316Z,24.08
2022-07-29T19:23:10.651Z,23.89
2022-07-29T19:25:53.179Z,23.76
2022-07-29T19:28:21.933Z,23.63
2022-07-29T19:30:52.838Z,23.50
2022-07-29T19:33:21.529Z,23.42
2022-07-29T19:35:57.786Z,23.35
2022-07-29T19:38:29.732Z,23.23
2022-07-29T19:41:05.617Z,23.13
2022-07-29T19:43:51.500Z,23.05
2022-07-29T19:46:21.767Z,22.93
2022-07-29T19:48:50.404Z,22.87
2022-07-29T19:51:19.867Z,22.83
2022-07-29T19:53:48.146Z,22.78
2022-07-29T19:56:16.194Z,22.72
2022-07-29T19:58:45.656Z,22.68
2022-07-29T20:01:13.672Z,22.65
2022-07-29T20:03:41.663Z,22.60
2022-07-29T20:06:09.719Z,22.55
2022-07-29T20:08:39.055Z,22.53
2022-07-29T20:11:11.135Z,22.50
2022-07-29T20:13:41.613Z,22.49
2022-07-29T20:16:10.924Z,22.38
2022-07-29T20:18:38.896Z,22.27
2022-07-29T20:21:07.059Z,22.22
2022-07-29T20:23:35.489Z,22.17
2022-07-29T20:26:09.461Z,22.16
2022-07-29T20:28:39.597Z,22.04
2022-07-29T20:31:11.237Z,21.99
2022-07-29T20:33:39.215Z,22.00
2022-07-29T20:36:12.542Z,21.92
2022-07-29T20:38:40.675Z,21.80
2022-07-29T20:41:10.096Z,21.78
2022-07-29T20:43:39.593Z,21.79
2022-07-29T20:46:07.757Z,21.73
2022-07-29T20:48:36.035Z,21.63
2022-07-29T20:51:15.702Z,21.61
2022-07-29T20:53:43.646Z,21.64
2022-07-29T20:56:13.359Z,21.63
2022-07-29T21:01:11.233Z,21.58
2022-07-29T21:03:39.292Z,21.58
2022-07-29T21:06:07.990Z,21.53
2022-07-29T21:08:36.147Z,21.52
2022-07-29T21:11:07.222Z,21.48
2022-07-29T21:13:42.439Z,21.47
2022-07-29T21:16:14.800Z,21.39
2022-07-29T21:18:46.205Z,21.29
2022-07-29T21:21:15.223Z,21.24
2022-07-29T21:23:44.143Z,21.20
2022-07-29T21:26:13.169Z,21.23
2022-07-29T21:28:43.728Z,21.28
2022-07-29T21:31:13.544Z,21.28
2022-07-29T21:33:43.180Z,21.18
2022-07-29T21:36:44.004Z,21.13
2022-07-29T21:39:17.126Z,20.96
2022-07-29T21:41:45.159Z,20.95
2022-07-29T21:44:14.916Z,20.86
2022-07-29T21:46:43.222Z,20.81
2022-07-29T21:49:11.355Z,20.74
2022-07-29T21:51:39.451Z,20.68
2022-07-29T21:54:07.839Z,20.52
2022-07-29T21:56:36.945Z,20.35
2022-07-29T21:59:05.174Z,20.24
2022-07-29T22:01:39.697Z,20.08
2022-07-29T22:04:07.943Z,20.00
2022-07-29T22:06:35.931Z,19.89
2022-07-29T22:09:04.412Z,19.78
2022-07-29T22:11:33.822Z,19.72
2022-07-29T22:14:01.836Z,19.80
2022-07-29T22:16:29.889Z,19.89
2022-07-29T22:18:59.548Z,19.93
2022-07-29T22:21:27.619Z,19.86
2022-07-29T22:23:55.844Z,19.73
2022-07-29T22:26:23.866Z,19.65
2022-07-29T22:28:52.431Z,19.46
2022-07-29T22:31:21.078Z,19.42
2022-07-29T22:33:51.260Z,19.29
2022-07-29T22:36:20.951Z,19.30
2022-07-29T22:38:51.864Z,19.34
2022-07-29T22:41:19.938Z,19.35
2022-07-29T22:43:48.012Z,19.47
2022-07-29T22:46:16.321Z,19.58
2022-07-29T22:48:44.407Z,19.59
2022-07-29T22:51:12.488Z,19.77
2022-07-29T22:53:41.959Z,19.85
2022-07-29T22:56:10.262Z,19.84
2022-07-29T22:58:38.292Z,19.82
2022-07-29T23:01:07.476Z,19.90
2022-07-29T23:03:35.583Z,19.90
2022-07-29T23:06:03.689Z,19.93
2022-07-29T23:08:31.848Z,19.88
2022-07-29T23:11:03.978Z,19.77
2022-07-29T23:13:31.998Z,19.69
2022-07-29T23:16:00.280Z,19.75
2022-07-29T23:18:39.259Z,19.73
2022-07-29T23:21:07.482Z,19.82
2022-07-29T23:23:37.190Z,19.87
2022-07-29T23:26:06.467Z,19.88
2022-07-29T23:28:35.635Z,19.84
2022-07-29T23:31:04.507Z,19.89
2022-07-29T23:33:32.988Z,19.89
2022-07-29T23:36:00.935Z,19.98
2022-07-29T23:38:31.719Z,20.00
2022-07-29T23:41:01.704Z,20.01
2022-07-29T23:43:33.319Z,19.92
2022-07-29T23:46:01.339Z,19.81
2022-07-29T23:48:31.921Z,19.85
2022-07-29T23:51:01.315Z,19.82
2022-07-29T23:53:29.855Z,19.80
2022-07-29T23:55:58.059Z,19.80
2022-07-29T23:58:26.093Z,19.86
